createdAt,value
2019-06-27T00:00:47.554Z,101144.38
2019-06-27T00:03:16.963Z,101142.95
2019-06-27T00:05:46.248Z,101145.95
2019-06-27T00:08:15.701Z,101143.69
2019-06-27T00:10:44.955Z,101145.84
2019-06-27T00:13:14.344Z,101149.31
2019-06-27T00:15:44.112Z,101152.33
2019-06-27T00:18:13.335Z,101150.05
2019-06-27T00:20:42.683Z,101153.54
2019-06-27T00:23:13.869Z,101161.39
2019-06-27T00:25:43.108Z,101161.76
2019-06-27T00:28:12.397Z,101157.30
2019-06-27T00:30:41.719Z,101158.99
2019-06-27T00:33:10.994Z,101158.50
2019-06-27T00:35:41.391Z,101165.92
2019-06-27T00:38:10.880Z,101164.56
2019-06-27T00:40:40.107Z,101134.78
2019-06-27T00:43:09.554Z,101161.83
2019-06-27T00:45:39.150Z,101161.33
2019-06-27T00:48:08.420Z,101166.59
2019-06-27T00:50:37.738Z,101159.08
2019-06-27T00:53:07.188Z,101168.30
2019-06-27T00:55:36.415Z,101172.64
2019-06-27T00:58:05.683Z,101166.00
2019-06-27T01:00:35.000Z,101168.59
2019-06-27T01:03:04.225Z,101166.34
2019-06-27T01:05:33.609Z,101171.16
2019-06-27T01:08:03.192Z,101172.89
2019-06-27T01:10:32.398Z,101174.16
2019-06-27T01:13:02.030Z,101175.43
2019-06-27T01:15:31.351Z,101173.60
2019-06-27T01:18:00.616Z,101170.89
2019-06-27T01:20:29.931Z,101180.05
2019-06-27T01:22:59.276Z,101175.18
2019-06-27T01:25:28.513Z,101180.84
2019-06-27T01:27:58.161Z,101180.36
2019-06-27T01:30:27.710Z,101182.52
2019-06-27T01:32:56.918Z,101184.29
2019-06-27T01:35:26.270Z,101189.52
2019-06-27T01:37:55.586Z,101193.45
2019-06-27T01:40:24.888Z,101197.35
2019-06-27T01:42:54.182Z,101206.10
2019-06-27T01:45:29.293Z,101210.49
2019-06-27T01:47:58.546Z,101211.73
2019-06-27T01:50:27.780Z,101217.38
2019-06-27T01:52:57.283Z,101220.38
2019-06-27T01:55:26.705Z,101220.78
2019-06-27T01:57:55.925Z,101222.97
2019-06-27T02:00:26.584Z,101226.01
2019-06-27T02:02:55.935Z,101223.31
2019-06-27T02:05:25.137Z,101227.20
2019-06-27T02:07:54.644Z,101231.53
2019-06-27T02:10:24.021Z,101224.86
2019-06-27T02:12:53.237Z,101226.97
2019-06-27T02:15:23.054Z,101231.79
2019-06-27T02:17:52.510Z,101237.03
2019-06-27T02:20:21.917Z,101238.26
2019-06-27T02:22:51.134Z,101247.03
2019-06-27T02:25:22.147Z,101243.44
2019-06-27T02:28:03.359Z,101255.21
2019-06-27T02:30:30.993Z,101252.55
2019-06-27T02:33:00.196Z,101253.37
2019-06-27T02:35:29.401Z,101247.14
2019-06-27T02:37:59.189Z,101251.43
2019-06-27T02:40:28.427Z,101252.19
2019-06-27T02:42:57.859Z,101260.46
2019-06-27T02:45:27.183Z,101264.31
2019-06-27T02:47:56.502Z,101262.07
2019-06-27T02:50:25.748Z,101260.26
2019-06-27T02:52:55.203Z,101261.05
2019-06-27T02:55:24.397Z,101263.15
2019-06-27T02:57:53.599Z,101264.01
2019-06-27T03:00:23.013Z,101268.00
2019-06-27T03:02:52.218Z,101266.21
2019-06-27T03:05:21.533Z,101266.61
2019-06-27T03:07:51.240Z,101271.38
2019-06-27T03:10:20.848Z,101273.13
2019-06-27T03:12:50.008Z,101270.92
2019-06-27T03:15:19.622Z,101272.16
2019-06-27T03:17:48.819Z,101270.34
2019-06-27T03:20:18.443Z,101279.03
2019-06-27T03:22:48.018Z,101278.50
2019-06-27T03:25:17.250Z,101285.09
2019-06-27T03:27:46.458Z,101282.88
2019-06-27T03:30:16.332Z,101288.58
2019-06-27T03:32:45.549Z,101283.73
2019-06-27T03:35:15.051Z,101287.65
2019-06-27T03:37:44.653Z,101291.56
2019-06-27T03:40:15.560Z,101284.09
2019-06-27T03:42:45.031Z,101293.73
2019-06-27T03:45:16.063Z,101288.39
2019-06-27T03:47:45.386Z,101285.19
2019-06-27T03:50:15.311Z,101294.87
2019-06-27T03:52:44.689Z,101299.32
2019-06-27T03:55:15.597Z,101301.06
2019-06-27T03:57:45.740Z,101293.16
2019-06-27T04:00:20.569Z,101296.69
2019-06-27T04:02:50.002Z,101301.48
2019-06-27T04:05:19.239Z,101301.52
2019-06-27T04:07:48.453Z,101301.14
2019-06-27T04:10:18.062Z,101303.38
2019-06-27T04:12:47.322Z,101298.58
2019-06-27T04:15:16.547Z,101303.38
2019-06-27T04:17:45.870Z,101315.23
2019-06-27T04:20:15.440Z,101310.35
2019-06-27T04:22:44.636Z,101314.30
2019-06-27T04:25:14.148Z,101318.25
2019-06-27T04:27:43.361Z,101322.28
2019-06-27T04:30:13.001Z,101325.37
2019-06-27T04:32:42.493Z,101321.89
2019-06-27T04:35:11.844Z,101325.37
2019-06-27T04:37:41.029Z,101330.19
2019-06-27T04:40:10.490Z,101329.25
2019-06-27T04:42:39.754Z,101329.72
2019-06-27T04:45:08.962Z,101325.84
2019-06-27T04:47:38.458Z,101342.11
2019-06-27T04:50:07.774Z,101338.55
2019-06-27T04:52:37.015Z,101335.02
2019-06-27T04:55:06.794Z,101339.37
2019-06-27T04:57:36.075Z,101335.88
2019-06-27T05:00:05.642Z,101334.52
2019-06-27T05:02:35.111Z,101339.44
2019-06-27T05:05:04.735Z,101338.63
2019-06-27T05:07:34.113Z,101340.02
2019-06-27T05:10:03.512Z,101337.06
2019-06-27T05:12:32.735Z,101333.97
2019-06-27T05:15:02.334Z,101348.45
2019-06-27T05:17:31.751Z,101345.47
2019-06-27T05:20:03.237Z,101345.16
2019-06-27T05:22:32.235Z,101346.01
2019-06-27T05:25:01.621Z,101346.83
2019-06-27T05:27:30.878Z,101352.52
2019-06-27T05:30:09.576Z,101351.59
2019-06-27T05:32:32.541Z,101355.20
2019-06-27T05:35:02.023Z,101358.80
2019-06-27T05:37:31.233Z,101357.05
2019-06-27T05:40:00.771Z,101366.31
2019-06-27T05:42:30.926Z,101357.66
2019-06-27T05:45:00.154Z,101362.97
2019-06-27T05:47:29.395Z,101363.04
2019-06-27T05:49:58.719Z,101362.29
2019-06-27T05:52:28.826Z,101361.58
2019-06-27T05:54:58.416Z,101364.71
2019-06-27T05:57:27.756Z,101356.48
2019-06-27T05:59:56.993Z,101361.50
2019-06-27T06:02:26.375Z,101363.45
2019-06-27T06:04:55.638Z,101367.15
2019-06-27T06:07:24.865Z,101362.41
2019-06-27T06:09:54.305Z,101366.48
2019-06-27T06:12:23.635Z,101369.66
2019-06-27T06:14:52.854Z,101378.63
2019-06-27T06:17:22.304Z,101369.09
2019-06-27T06:19:52.799Z,101370.11
2019-06-27T06:22:22.025Z,101371.15
2019-06-27T06:24:51.312Z,101378.05
2019-06-27T06:27:21.160Z,101387.13
2019-06-27T06:29:50.390Z,101396.03
2019-06-27T06:32:19.647Z,101394.69
2019-06-27T06:34:49.314Z,101394.23
2019-06-27T06:37:18.553Z,101401.38
2019-06-27T06:39:47.803Z,101390.13
2019-06-27T06:42:17.268Z,101391.23
2019-06-27T06:44:46.486Z,101386.92
2019-06-27T06:47:15.744Z,101391.45
2019-06-27T06:49:45.202Z,101406.05
2019-06-27T06:52:14.472Z,101411.16
2019-06-27T06:54:44.795Z,101403.52
2019-06-27T06:57:14.436Z,101404.19
2019-06-27T06:59:45.990Z,101406.19
2019-06-27T07:02:15.596Z,101409.86
2019-06-27T07:04:44.814Z,101415.12
2019-06-27T07:07:14.025Z,101416.36
2019-06-27T07:09:43.505Z,101426.43
2019-06-27T07:12:12.698Z,101424.19
2019-06-27T07:14:42.296Z,101418.64
2019-06-27T07:17:11.650Z,101421.92
2019-06-27T07:19:40.983Z,101416.39
2019-06-27T07:22:10.205Z,101417.86
2019-06-27T07:24:39.663Z,101429.53
2019-06-27T07:27:08.841Z,101425.11
2019-06-27T07:29:38.065Z,101434.22
2019-06-27T07:32:07.608Z,101442.09
2019-06-27T07:34:36.877Z,101436.98
2019-06-27T07:37:06.440Z,101433.96
2019-06-27T07:39:36.019Z,101430.03
2019-06-27T07:42:05.237Z,101436.60
2019-06-27T07:44:34.464Z,101433.30
2019-06-27T07:47:03.839Z,101437.03
2019-06-27T07:49:33.394Z,101430.72
2019-06-27T07:52:03.148Z,101438.36
2019-06-27T07:54:33.063Z,101436.07
2019-06-27T07:57:02.661Z,101438.27
2019-06-27T07:59:31.877Z,101441.83
2019-06-27T08:02:01.464Z,101441.45
2019-06-27T08:04:30.760Z,101446.34
2019-06-27T08:06:59.981Z,101457.43
2019-06-27T08:09:29.473Z,101467.19
2019-06-27T08:11:58.705Z,101461.87
2019-06-27T08:14:27.954Z,101459.65
2019-06-27T08:16:57.352Z,101460.95
2019-06-27T08:19:28.615Z,101463.07
2019-06-27T08:21:58.212Z,101473.54
2019-06-27T08:24:27.439Z,101460.58
2019-06-27T08:26:56.677Z,101467.00
2019-06-27T08:29:26.623Z,101472.80
2019-06-27T08:31:55.840Z,101481.52
2019-06-27T08:34:25.123Z,101475.18
2019-06-27T08:36:54.521Z,101474.03
2019-06-27T08:39:23.802Z,101478.66
2019-06-27T08:41:53.019Z,101472.12
2019-06-27T08:44:22.847Z,101486.21
2019-06-27T08:46:52.138Z,101496.67
2019-06-27T08:49:21.394Z,101487.15
2019-06-27T08:51:50.940Z,101489.78
2019-06-27T08:54:20.341Z,101488.40
2019-06-27T08:56:49.622Z,101497.02
2019-06-27T08:59:19.486Z,101495.70
2019-06-27T09:01:48.759Z,101495.22
2019-06-27T09:04:17.965Z,101488.63
2019-06-27T09:06:47.382Z,101489.41
2019-06-27T09:09:16.658Z,101482.58
2019-06-27T09:11:45.871Z,101487.23
2019-06-27T09:14:15.285Z,101493.58
2019-06-27T09:16:46.782Z,101490.05
2019-06-27T09:19:15.633Z,101492.44
2019-06-27T09:21:45.090Z,101495.65
2019-06-27T09:24:15.632Z,101491.79
2019-06-27T09:26:44.853Z,101485.64
2019-06-27T09:29:14.330Z,101485.97
2019-06-27T09:31:43.577Z,101491.37
2019-06-27T09:34:12.787Z,101491.11
2019-06-27T09:36:42.636Z,101485.77
2019-06-27T09:39:13.902Z,101488.58
2019-06-27T09:41:43.211Z,101491.86
2019-06-27T09:44:12.447Z,101490.08
2019-06-27T09:46:41.755Z,101481.86
2019-06-27T09:49:11.053Z,101480.67
2019-06-27T09:51:40.288Z,101486.66
2019-06-27T09:54:09.558Z,101494.88
2019-06-27T09:56:38.880Z,101487.41
2019-06-27T09:59:08.121Z,101488.37
2019-06-27T10:01:37.407Z,101490.91
2019-06-27T10:04:06.746Z,101489.72
2019-06-27T10:06:35.973Z,101485.22
2019-06-27T10:09:06.243Z,101483.88
2019-06-27T10:11:35.554Z,101490.27
2019-06-27T10:14:04.823Z,101471.34
2019-06-27T10:16:34.078Z,101488.95
2019-06-27T10:19:03.653Z,101497.77
2019-06-27T10:21:32.853Z,101503.33
2019-06-27T10:24:02.153Z,101498.48
2019-06-27T10:26:31.565Z,101497.03
2019-06-27T10:29:00.792Z,101494.34
2019-06-27T10:31:30.113Z,101492.67
2019-06-27T10:33:59.608Z,101502.42
2019-06-27T10:36:28.822Z,101495.91
2019-06-27T10:38:58.105Z,101499.70
2019-06-27T10:41:27.506Z,101488.14
2019-06-27T10:43:58.558Z,101496.50
2019-06-27T10:46:28.265Z,101492.93
2019-06-27T10:48:57.492Z,101490.97
2019-06-27T10:51:26.842Z,101492.48
2019-06-27T10:53:56.786Z,101505.19
2019-06-27T10:56:26.433Z,101499.28
2019-06-27T10:58:55.636Z,101510.42
2019-06-27T11:01:24.971Z,101510.30
2019-06-27T11:03:54.278Z,101507.83
2019-06-27T11:06:23.507Z,101507.10
2019-06-27T11:08:52.997Z,101495.01
2019-06-27T11:11:22.255Z,101508.11
2019-06-27T11:13:58.905Z,101512.02
2019-06-27T11:16:22.581Z,101503.33
2019-06-27T11:18:51.894Z,101501.98
2019-06-27T11:21:21.135Z,101503.10
2019-06-27T11:23:50.719Z,101493.11
2019-06-27T11:26:19.956Z,101499.70
2019-06-27T11:28:49.300Z,101503.64
2019-06-27T11:31:19.038Z,101506.89
2019-06-27T11:33:48.275Z,101512.89
2019-06-27T11:36:17.491Z,101516.94
2019-06-27T11:38:47.202Z,101510.34
2019-06-27T11:41:16.434Z,101508.47
2019-06-27T11:43:45.671Z,101519.23
2019-06-27T11:46:15.462Z,101515.49
2019-06-27T11:48:44.681Z,101507.36
2019-06-27T11:51:13.914Z,101508.45
2019-06-27T11:53:43.987Z,101505.39
2019-06-27T11:56:13.207Z,101516.14
2019-06-27T11:58:42.425Z,101514.70
2019-06-27T12:01:11.960Z,101518.99
2019-06-27T12:03:49.308Z,101513.25
2019-06-27T12:06:12.131Z,101515.20
2019-06-27T12:08:41.600Z,101517.91
2019-06-27T12:11:10.838Z,101521.39
2019-06-27T12:13:40.100Z,101516.81
2019-06-27T12:16:09.417Z,101516.41
2019-06-27T12:18:38.638Z,101522.44
2019-06-27T12:21:07.852Z,101509.47
2019-06-27T12:23:37.509Z,101509.13
2019-06-27T12:26:06.720Z,101500.94
2019-06-27T12:28:36.039Z,101476.23
2019-06-27T12:31:19.475Z,101502.36
2019-06-27T12:33:36.563Z,101498.88
2019-06-27T12:36:06.974Z,101485.49
2019-06-27T12:38:36.513Z,101488.28
2019-06-27T12:41:05.750Z,101494.84
2019-06-27T12:43:35.123Z,101492.16
2019-06-27T12:46:04.387Z,101480.45
2019-06-27T12:48:36.917Z,101473.30
2019-06-27T12:51:04.730Z,101472.20
2019-06-27T12:53:34.251Z,101474.63
2019-06-27T12:56:03.470Z,101472.17
2019-06-27T12:58:33.106Z,101472.58
2019-06-27T13:01:02.581Z,101377.30
2019-06-27T13:03:31.865Z,101477.63
2019-06-27T13:06:01.583Z,101480.23
2019-06-27T13:08:30.880Z,101475.81
2019-06-27T13:11:00.112Z,101372.19
2019-06-27T13:13:30.573Z,101476.63
2019-06-27T13:15:59.896Z,101472.93
2019-06-27T13:18:29.120Z,101473.44
2019-06-27T13:20:58.902Z,101481.03
2019-06-27T13:23:28.449Z,101478.55
2019-06-27T13:25:57.759Z,101477.99
2019-06-27T13:28:27.106Z,101485.09
2019-06-27T13:30:56.577Z,101481.13
2019-06-27T13:33:26.623Z,101479.09
2019-06-27T13:36:02.417Z,101475.84
2019-06-27T13:38:38.612Z,101482.08
2019-06-27T13:41:07.906Z,101471.56
2019-06-27T13:43:43.038Z,101467.83
2019-06-27T13:46:19.615Z,101477.83
2019-06-27T13:48:53.469Z,101477.78
2019-06-27T13:51:26.980Z,101478.23
2019-06-27T13:53:56.718Z,101482.00
2019-06-27T13:56:25.956Z,101479.36
2019-06-27T13:58:55.298Z,101480.19
2019-06-27T14:01:24.654Z,101480.62
2019-06-27T14:03:53.864Z,101484.72
2019-06-27T14:06:23.343Z,101490.05
2019-06-27T14:08:55.195Z,101492.64
2019-06-27T14:11:24.612Z,101495.88
2019-06-27T14:13:53.945Z,101500.24
2019-06-27T14:16:23.558Z,101499.34
2019-06-27T14:18:52.821Z,101495.80
2019-06-27T14:21:22.141Z,101486.23
2019-06-27T14:23:51.420Z,101485.41
2019-06-27T14:26:20.812Z,101489.80
2019-06-27T14:28:50.040Z,101484.37
2019-06-27T14:31:19.434Z,101491.00
2019-06-27T14:33:48.742Z,101489.05
2019-06-27T14:36:18.107Z,101486.39
2019-06-27T14:38:47.575Z,101483.25
2019-06-27T14:41:16.948Z,101477.16
2019-06-27T14:43:46.176Z,101480.69
2019-06-27T14:46:15.480Z,101489.72
2019-06-27T14:48:45.637Z,101501.55
2019-06-27T14:51:14.858Z,101489.62
2019-06-27T14:53:44.207Z,101501.06
2019-06-27T14:56:13.602Z,101499.50
2019-06-27T14:58:42.865Z,101494.87
2019-06-27T15:01:12.106Z,101508.56
2019-06-27T15:03:41.433Z,101496.73
2019-06-27T15:06:12.514Z,101503.63
2019-06-27T15:08:41.625Z,101501.45
2019-06-27T15:11:11.557Z,101501.70
2019-06-27T15:13:40.796Z,101502.30
2019-06-27T15:16:12.194Z,101508.66
2019-06-27T15:18:41.329Z,101498.53
2019-06-27T15:21:10.552Z,101501.97
2019-06-27T15:23:39.838Z,101501.61
2019-06-27T15:26:09.204Z,101506.20
2019-06-27T15:28:38.417Z,101508.88
2019-06-27T15:31:07.831Z,101500.26
2019-06-27T15:33:37.300Z,101501.16
2019-06-27T15:36:06.563Z,101503.32
2019-06-27T15:38:36.037Z,101500.22
2019-06-27T15:41:05.447Z,101502.27
2019-06-27T15:43:34.670Z,101491.80
2019-06-27T15:46:04.012Z,101493.63
2019-06-27T15:48:33.754Z,101488.14
2019-06-27T15:51:03.024Z,101479.81
2019-06-27T15:53:32.421Z,101483.93
2019-06-27T15:56:01.865Z,101498.78
2019-06-27T15:58:31.093Z,101495.50
2019-06-27T16:01:00.673Z,101487.50
2019-06-27T16:03:31.983Z,101487.74
2019-06-27T16:06:09.086Z,101494.83
2019-06-27T16:08:32.275Z,101498.45
2019-06-27T16:11:01.493Z,101498.33
2019-06-27T16:13:30.858Z,101493.34
2019-06-27T16:16:00.360Z,101493.94
2019-06-27T16:18:29.684Z,101499.16
2019-06-27T16:20:59.076Z,101507.66
2019-06-27T16:23:28.874Z,101511.32
2019-06-27T16:25:58.096Z,101514.22
2019-06-27T16:28:27.542Z,101517.94
2019-06-27T16:30:57.238Z,101515.83
2019-06-27T16:33:27.580Z,101515.48
2019-06-27T16:35:57.315Z,101512.20
2019-06-27T16:38:26.772Z,101505.50
2019-06-27T16:40:56.126Z,101509.46
2019-06-27T16:43:25.332Z,101508.28
2019-06-27T16:45:54.813Z,101512.82
2019-06-27T16:48:24.026Z,101511.28
2019-06-27T16:50:53.250Z,101510.83
2019-06-27T16:53:22.769Z,101519.62
2019-06-27T16:55:52.017Z,101514.92
2019-06-27T16:58:21.356Z,101521.59
2019-06-27T17:00:50.929Z,101516.09
2019-06-27T17:03:21.786Z,101519.88
2019-06-27T17:05:53.380Z,101514.09
2019-06-27T17:08:22.609Z,101508.77
2019-06-27T17:10:51.824Z,101513.62
2019-06-27T17:13:21.049Z,101512.61
2019-06-27T17:15:50.385Z,101510.03
2019-06-27T17:18:19.595Z,101514.91
2019-06-27T17:20:48.853Z,101525.61
2019-06-27T17:23:18.309Z,101527.73
2019-06-27T17:25:48.780Z,101519.43
2019-06-27T17:28:18.308Z,101521.47
2019-06-27T17:30:47.717Z,101527.42
2019-06-27T17:33:16.940Z,101529.88
2019-06-27T17:35:46.943Z,101530.91
2019-06-27T17:38:16.463Z,101520.36
2019-06-27T17:40:45.679Z,101530.77
2019-06-27T17:43:15.089Z,101530.01
2019-06-27T17:45:44.543Z,101526.13
2019-06-27T17:48:13.767Z,101530.68
2019-06-27T17:50:42.967Z,101528.06
2019-06-27T17:53:12.459Z,101532.53
2019-06-27T17:55:41.679Z,101540.12
2019-06-27T17:58:10.906Z,101533.47
2019-06-27T18:00:40.480Z,101325.20
2019-06-27T18:03:09.688Z,101541.96
2019-06-27T18:05:38.908Z,101539.81
2019-06-27T18:08:08.674Z,101547.40
2019-06-27T18:10:37.909Z,101543.01
2019-06-27T18:13:07.130Z,101544.80
2019-06-27T18:15:36.573Z,101549.25
2019-06-27T18:18:05.923Z,101547.05
2019-06-27T18:20:35.175Z,101552.83
2019-06-27T18:23:04.675Z,101547.06
2019-06-27T18:25:33.883Z,101550.19
2019-06-27T18:28:03.128Z,101556.84
2019-06-27T18:30:32.990Z,101563.03
2019-06-27T18:33:02.197Z,101566.59
2019-06-27T18:35:32.336Z,101567.91
2019-06-27T18:38:01.813Z,101566.59
2019-06-27T18:40:31.035Z,101563.92
2019-06-27T18:43:00.247Z,101566.59
2019-06-27T18:45:29.812Z,101567.47
2019-06-27T18:47:59.046Z,101566.13
2019-06-27T18:50:28.243Z,101568.78
2019-06-27T18:52:57.709Z,101574.55
2019-06-27T18:55:26.916Z,101574.09
2019-06-27T18:57:56.140Z,101578.52
2019-06-27T19:00:26.371Z,101574.52
2019-06-27T19:02:55.596Z,101583.36
2019-06-27T19:05:24.822Z,101585.13
2019-06-27T19:07:54.177Z,101583.78
2019-06-27T19:10:23.371Z,101584.17
2019-06-27T19:12:52.584Z,101584.61
2019-06-27T19:15:22.126Z,101585.03
2019-06-27T19:17:51.354Z,101592.56
2019-06-27T19:20:26.885Z,101589.89
2019-06-27T19:23:24.167Z,101598.30
2019-06-27T19:25:55.679Z,101598.72
2019-06-27T19:28:24.892Z,101595.59
2019-06-27T19:30:54.095Z,101594.67
2019-06-27T19:33:23.710Z,101599.52
2019-06-27T19:35:52.911Z,101597.28
2019-06-27T19:38:23.126Z,101596.37
2019-06-27T19:40:52.580Z,101599.91
2019-06-27T19:43:27.536Z,101598.56
2019-06-27T19:45:53.183Z,101599.41
2019-06-27T19:48:22.751Z,101602.47
2019-06-27T19:50:51.965Z,101607.75
2019-06-27T19:53:21.471Z,101603.71
2019-06-27T19:55:50.925Z,101615.63
2019-06-27T19:58:21.089Z,101616.92
2019-06-27T20:00:50.431Z,101619.48
2019-06-27T20:03:19.682Z,101626.94
2019-06-27T20:05:48.998Z,101624.25
2019-06-27T20:08:20.155Z,101632.61
2019-06-27T20:10:49.730Z,101629.91
2019-06-27T20:13:19.154Z,101631.17
2019-06-27T20:15:48.384Z,101637.37
2019-06-27T20:18:17.819Z,101639.98
2019-06-27T20:20:47.549Z,101634.61
2019-06-27T20:23:16.796Z,101645.62
2019-06-27T20:25:46.383Z,101646.45
2019-06-27T20:28:15.959Z,101649.92
2019-06-27T20:30:48.405Z,101647.59
2019-06-27T20:33:17.849Z,101654.14
2019-06-27T20:35:48.874Z,101655.31
2019-06-27T20:38:33.840Z,101659.65
2019-06-27T20:40:51.505Z,101652.02
2019-06-27T20:43:20.752Z,101660.33
2019-06-27T20:45:50.481Z,101665.09
2019-06-27T20:48:19.728Z,101664.55
2019-06-27T20:50:49.085Z,101666.25
2019-06-27T20:53:19.002Z,101664.83
2019-06-27T20:55:48.088Z,101663.41
2019-06-27T20:58:17.358Z,101673.02
2019-06-27T21:00:46.799Z,101673.38
2019-06-27T21:03:16.389Z,101676.83
2019-06-27T21:05:45.699Z,101676.28
2019-06-27T21:08:15.198Z,101684.08
2019-06-27T21:10:44.565Z,101682.22
2019-06-27T21:13:13.769Z,101684.36
2019-06-27T21:15:43.221Z,101686.87
2019-06-27T21:18:12.476Z,101689.00
2019-06-27T21:20:41.769Z,101684.50
2019-06-27T21:23:12.650Z,101689.69
2019-06-27T21:25:41.918Z,101694.49
2019-06-27T21:28:11.134Z,101695.30
2019-06-27T21:30:40.649Z,101692.17
2019-06-27T21:33:09.899Z,101696.03
2019-06-27T21:35:39.148Z,101697.21
2019-06-27T21:38:08.470Z,101707.28
2019-06-27T21:40:37.750Z,101700.95
2019-06-27T21:43:07.040Z,101702.61
2019-06-27T21:45:36.548Z,101705.16
2019-06-27T21:48:05.878Z,101706.00
2019-06-27T21:50:35.123Z,101709.53
2019-06-27T21:53:04.649Z,101714.80
2019-06-27T21:55:34.005Z,101715.66
2019-06-27T21:58:03.233Z,101721.80
2019-06-27T22:00:35.878Z,101724.39
2019-06-27T22:03:05.276Z,101721.71
2019-06-27T22:05:34.583Z,101724.79
2019-06-27T22:08:04.041Z,101724.30
2019-06-27T22:10:33.402Z,101726.05
2019-06-27T22:13:02.618Z,101728.66
2019-06-27T22:15:32.003Z,101730.32
2019-06-27T22:18:01.267Z,101736.87
2019-06-27T22:20:30.475Z,101734.55
2019-06-27T22:22:59.944Z,101734.52
2019-06-27T22:25:39.926Z,101730.95
2019-06-27T22:28:00.186Z,101737.10
2019-06-27T22:30:29.692Z,101736.70
2019-06-27T22:32:58.918Z,101740.64
2019-06-27T22:35:28.144Z,101738.36
2019-06-27T22:38:15.081Z,101736.53
2019-06-27T22:41:02.084Z,101737.86
2019-06-27T22:43:49.128Z,101744.86
2019-06-27T22:46:35.887Z,101749.22
2019-06-27T22:49:04.521Z,101754.12
2019-06-27T22:51:51.723Z,101753.19
2019-06-27T22:54:23.037Z,101751.41
2019-06-27T22:56:52.296Z,101754.12
2019-06-27T22:59:21.517Z,101747.87
2019-06-27T23:01:50.843Z,101751.38
2019-06-27T23:04:20.067Z,101755.66
2019-06-27T23:06:49.296Z,101754.27
2019-06-27T23:09:18.770Z,101756.84
2019-06-27T23:11:47.975Z,101759.02
2019-06-27T23:14:17.217Z,101755.84
2019-06-27T23:16:46.675Z,101760.59
2019-06-27T23:19:15.895Z,101756.56
2019-06-27T23:21:45.094Z,101754.67
2019-06-27T23:24:14.511Z,101424.00
2019-06-27T23:26:43.767Z,101750.91
2019-06-27T23:29:12.980Z,101751.27
2019-06-27T23:31:42.687Z,101755.16
2019-06-27T23:34:11.901Z,101751.55
2019-06-27T23:36:41.107Z,101754.05
2019-06-27T23:39:10.544Z,101753.92
2019-06-27T23:41:39.916Z,101756.06
2019-06-27T23:44:09.121Z,101760.38
2019-06-27T23:46:44.830Z,101760.30
2019-06-27T23:49:14.035Z,101757.62
2019-06-27T23:51:43.336Z,101752.19
2019-06-27T23:54:12.639Z,101752.53
2019-06-27T23:56:42.019Z,101755.14
2019-06-27T23:59:11.531Z,101753.73
